createdAt,value
2022-08-26T00:04:47.391Z,25.10
2022-08-26T00:09:47.446Z,25.00
2022-08-26T00:14:46.936Z,25.00
2022-08-26T00:19:45.193Z,25.00
2022-08-26T00:24:47.877Z,25.00
2022-08-26T00:29:46.568Z,25.00
2022-08-26T00:34:44.874Z,25.00
2022-08-26T00:39:43.294Z,25.00
2022-08-26T00:44:47.831Z,24.90
2022-08-26T00:49:51.504Z,24.90
2022-08-26T00:54:54.433Z,24.80
2022-08-26T00:59:58.267Z,24.80
2022-08-26T01:05:00.652Z,24.80
2022-08-26T01:09:59.935Z,24.80
2022-08-26T01:14:59.812Z,24.70
2022-08-26T01:20:03.688Z,24.70
2022-08-26T01:25:05.389Z,24.70
2022-08-26T01:30:05.026Z,24.60
2022-08-26T01:35:03.880Z,24.60
2022-08-26T01:40:05.270Z,24.60
2022-08-26T01:45:10.372Z,24.50
2022-08-26T01:50:27.833Z,24.50
2022-08-26T01:55:57.150Z,24.50
2022-08-26T02:00:55.883Z,24.40
2022-08-26T02:05:57.180Z,24.40
2022-08-26T02:10:57.909Z,24.30
2022-08-26T02:15:57.235Z,24.30
2022-08-26T02:20:57.273Z,24.30
2022-08-26T02:26:03.633Z,24.20
2022-08-26T02:31:02.578Z,24.20
2022-08-26T02:36:01.038Z,24.10
2022-08-26T02:41:00.708Z,24.10
2022-08-26T02:46:00.796Z,24.10
2022-08-26T02:51:01.869Z,24.00
2022-08-26T02:56:01.735Z,24.00
2022-08-26T03:01:01.715Z,23.90
2022-08-26T03:06:03.183Z,23.90
2022-08-26T03:11:02.828Z,23.90
2022-08-26T03:16:04.500Z,23.80
2022-08-26T03:21:06.809Z,23.80
2022-08-26T03:26:06.870Z,23.70
2022-08-26T03:31:05.395Z,23.70
2022-08-26T03:36:04.084Z,23.70
2022-08-26T03:41:02.708Z,23.60
2022-08-26T03:46:10.473Z,23.60
2022-08-26T03:51:14.792Z,23.50
2022-08-26T03:56:17.026Z,23.50
2022-08-26T04:01:19.759Z,23.50
2022-08-26T04:06:18.521Z,23.50
2022-08-26T04:11:21.505Z,23.40
2022-08-26T04:16:21.424Z,23.40
2022-08-26T04:21:22.591Z,23.30
2022-08-26T04:26:23.763Z,23.30
2022-08-26T04:31:25.694Z,23.30
2022-08-26T04:36:24.651Z,23.30
2022-08-26T04:41:23.049Z,23.30
2022-08-26T04:46:26.222Z,23.20
2022-08-26T04:51:28.118Z,23.20
2022-08-26T04:56:27.289Z,23.20
2022-08-26T05:01:59.455Z,23.20
2022-08-26T05:07:02.289Z,23.20
2022-08-26T05:12:01.550Z,23.20
2022-08-26T05:17:02.874Z,23.30
2022-08-26T05:22:01.237Z,23.30
2022-08-26T05:26:59.698Z,23.30
2022-08-26T05:31:58.254Z,23.40
2022-08-26T05:36:58.160Z,23.40
2022-08-26T05:41:56.488Z,23.50
2022-08-26T05:46:54.848Z,23.50
2022-08-26T05:51:53.161Z,23.60
2022-08-26T05:56:53.688Z,23.70
2022-08-26T06:01:52.066Z,23.80
2022-08-26T06:06:51.327Z,23.90
2022-08-26T06:11:50.666Z,24.00
2022-08-26T06:16:50.333Z,24.10
2022-08-26T06:21:51.351Z,24.20
2022-08-26T06:26:55.224Z,24.30
2022-08-26T06:31:56.296Z,24.50
2022-08-26T06:36:54.883Z,24.70
2022-08-26T06:41:53.190Z,24.90
2022-08-26T06:46:51.903Z,25.00
2022-08-26T06:51:51.630Z,25.20
2022-08-26T06:56:49.916Z,25.30
2022-08-26T07:01:49.686Z,25.50
2022-08-26T07:06:52.467Z,25.70
2022-08-26T07:11:56.156Z,25.90
2022-08-26T07:16:54.690Z,26.10
2022-08-26T07:21:54.009Z,26.20
2022-08-26T07:26:55.503Z,26.30
2022-08-26T07:31:54.272Z,26.40
2022-08-26T07:36:57.080Z,26.60
2022-08-26T07:41:58.412Z,26.70
2022-08-26T07:46:58.836Z,26.90
2022-08-26T07:51:57.236Z,27.10
2022-08-26T07:57:00.218Z,27.20
2022-08-26T08:01:59.154Z,27.30
2022-08-26T08:06:57.927Z,27.50
2022-08-26T08:11:58.646Z,27.80
2022-08-26T08:16:59.014Z,28.10
2022-08-26T08:21:57.675Z,28.40
2022-08-26T08:26:59.164Z,28.70
2022-08-26T08:31:58.619Z,28.70
2022-08-26T08:36:58.324Z,28.80
2022-08-26T08:42:28.272Z,29.00
2022-08-26T08:47:32.216Z,29.20
2022-08-26T08:52:36.269Z,29.40
2022-08-26T08:57:54.480Z,29.50
2022-08-26T09:02:57.534Z,29.80
2022-08-26T09:08:01.100Z,30.10
2022-08-26T09:13:02.591Z,30.30
2022-08-26T09:18:07.735Z,30.50
2022-08-26T09:23:11.684Z,30.60
2022-08-26T09:28:16.129Z,30.80
2022-08-26T09:33:19.485Z,31.10
2022-08-26T09:38:26.731Z,31.30
2022-08-26T09:43:28.592Z,31.40
2022-08-26T09:48:31.163Z,31.50
2022-08-26T09:53:33.209Z,31.70
2022-08-26T09:58:38.651Z,32.00
2022-08-26T10:03:41.806Z,32.30
2022-08-26T10:08:44.111Z,32.50
2022-08-26T10:13:52.553Z,32.70
2022-08-26T10:19:10.588Z,32.80
2022-08-26T10:24:11.255Z,32.80
2022-08-26T10:29:15.144Z,32.70
2022-08-26T10:34:14.169Z,32.60
2022-08-26T10:39:32.764Z,32.60
2022-08-26T10:44:41.047Z,32.50
2022-08-26T10:49:44.319Z,32.50
2022-08-26T10:54:49.312Z,32.50
2022-08-26T10:59:57.124Z,32.60
2022-08-26T11:04:58.577Z,32.70
2022-08-26T11:09:57.691Z,32.70
2022-08-26T11:14:59.069Z,32.90
2022-08-26T11:20:08.937Z,33.20
2022-08-26T11:25:15.446Z,33.60
2022-08-26T11:30:56.870Z,33.70
2022-08-26T11:35:56.875Z,34.00
2022-08-26T11:41:07.306Z,34.10
2022-08-26T11:46:13.389Z,34.10
2022-08-26T11:51:21.672Z,34.00
2022-08-26T11:56:31.800Z,33.90
2022-08-26T12:01:36.168Z,33.90
2022-08-26T12:06:44.943Z,34.00
2022-08-26T12:11:44.071Z,34.00
2022-08-26T12:16:44.235Z,34.00
2022-08-26T12:21:42.650Z,34.20
2022-08-26T12:26:41.078Z,34.30
2022-08-26T12:31:41.184Z,34.30
2022-08-26T12:36:46.660Z,34.50
2022-08-26T12:41:50.321Z,34.60
2022-08-26T12:46:49.883Z,34.80
2022-08-26T12:51:51.377Z,34.90
2022-08-26T12:56:49.851Z,35.00
2022-08-26T13:01:50.628Z,35.10
2022-08-26T13:06:50.824Z,35.00
2022-08-26T13:12:02.283Z,34.90
2022-08-26T13:17:05.127Z,34.80
2022-08-26T13:22:06.161Z,34.80
2022-08-26T13:27:06.828Z,34.40
2022-08-26T13:32:06.503Z,34.10
2022-08-26T13:37:07.005Z,33.90
2022-08-26T13:42:05.550Z,33.70
2022-08-26T13:47:03.912Z,33.50
2022-08-26T13:52:03.723Z,33.40
2022-08-26T13:57:06.010Z,33.30
2022-08-26T14:02:05.599Z,33.30
2022-08-26T14:07:04.513Z,33.30
2022-08-26T14:12:05.638Z,33.30
2022-08-26T14:17:04.052Z,33.40
2022-08-26T14:22:03.133Z,33.40
2022-08-26T14:27:01.367Z,33.30
2022-08-26T14:32:03.282Z,33.20
2022-08-26T14:37:07.646Z,33.20
2022-08-26T14:42:07.552Z,33.00
2022-08-26T14:47:07.635Z,32.90
2022-08-26T14:52:05.973Z,32.70
2022-08-26T14:57:07.094Z,32.60
2022-08-26T15:02:07.764Z,32.60
2022-08-26T15:07:06.632Z,32.50
2022-08-26T15:12:05.763Z,32.40
2022-08-26T15:17:05.346Z,32.30
2022-08-26T15:22:05.590Z,32.00
2022-08-26T15:27:03.786Z,31.80
2022-08-26T15:32:02.452Z,31.50
2022-08-26T15:37:00.699Z,31.30
2022-08-26T15:42:00.769Z,31.10
2022-08-26T15:46:59.453Z,31.00
2022-08-26T15:51:57.848Z,30.70
2022-08-26T15:56:56.037Z,30.50
2022-08-26T16:01:55.664Z,30.20
2022-08-26T16:06:55.073Z,29.90
2022-08-26T16:11:53.525Z,29.60
2022-08-26T16:16:52.243Z,29.30
2022-08-26T16:21:52.046Z,28.80
2022-08-26T16:26:50.528Z,28.30
2022-08-26T16:31:51.955Z,27.80
2022-08-26T16:36:51.712Z,27.50
2022-08-26T16:41:49.964Z,27.60
2022-08-26T16:46:48.315Z,27.60
2022-08-26T16:51:46.871Z,27.60
2022-08-26T16:56:46.542Z,27.60
2022-08-26T17:01:44.959Z,27.40
2022-08-26T17:06:43.257Z,27.30
2022-08-26T17:11:41.672Z,27.20
2022-08-26T17:16:41.384Z,27.10
2022-08-26T17:21:40.730Z,27.00
2022-08-26T17:26:39.218Z,27.00
2022-08-26T17:31:37.599Z,26.90
2022-08-26T17:36:37.269Z,26.80
2022-08-26T17:41:35.569Z,26.70
2022-08-26T17:46:38.233Z,26.60
2022-08-26T17:51:38.113Z,26.70
2022-08-26T17:56:36.349Z,26.50
2022-08-26T18:01:36.012Z,26.60
2022-08-26T18:06:34.530Z,26.60
2022-08-26T18:11:35.733Z,26.60
2022-08-26T18:16:38.294Z,26.50
2022-08-26T18:21:37.305Z,26.30
2022-08-26T18:26:38.951Z,26.00
2022-08-26T18:31:37.424Z,26.00
2022-08-26T18:36:37.746Z,25.90
2022-08-26T18:41:45.745Z,26.00
2022-08-26T18:46:48.000Z,26.10
2022-08-26T18:51:46.720Z,26.20
2022-08-26T18:56:46.958Z,26.30
2022-08-26T19:01:45.391Z,26.40
2022-08-26T19:06:47.862Z,26.30
2022-08-26T19:11:48.820Z,26.30
2022-08-26T19:16:50.648Z,26.30
2022-08-26T19:21:49.276Z,26.30
2022-08-26T19:26:51.398Z,26.20
2022-08-26T19:31:56.272Z,26.20
2022-08-26T19:36:56.862Z,26.20
2022-08-26T19:41:56.519Z,26.10
2022-08-26T19:46:55.111Z,26.00
2022-08-26T19:51:54.488Z,26.00
2022-08-26T19:56:52.825Z,26.00
2022-08-26T20:02:00.565Z,26.00
2022-08-26T20:07:01.055Z,25.90
2022-08-26T20:11:59.533Z,25.70
2022-08-26T20:17:00.288Z,25.60
2022-08-26T20:21:59.203Z,25.70
2022-08-26T20:26:57.484Z,25.70
2022-08-26T20:31:56.504Z,25.70
2022-08-26T20:36:56.416Z,25.60
2022-08-26T20:41:55.181Z,25.70
2022-08-26T20:46:53.581Z,25.60
2022-08-26T20:51:52.317Z,25.60
2022-08-26T20:56:52.459Z,25.50
2022-08-26T21:01:51.755Z,25.50
2022-08-26T21:06:52.729Z,25.50
2022-08-26T21:11:54.711Z,25.50
2022-08-26T21:16:53.177Z,25.50
2022-08-26T21:21:51.817Z,25.50
2022-08-26T21:26:50.674Z,25.40
2022-08-26T21:31:50.871Z,25.40
2022-08-26T21:36:49.761Z,25.30
2022-08-26T21:41:48.751Z,25.30
2022-08-26T21:46:47.646Z,25.20
2022-08-26T21:51:49.315Z,25.20
2022-08-26T21:56:48.317Z,25.20
2022-08-26T22:01:46.702Z,25.10
2022-08-26T22:06:48.773Z,25.10
2022-08-26T22:11:47.513Z,25.00
2022-08-26T22:16:50.878Z,25.00
2022-08-26T22:21:51.775Z,25.00
2022-08-26T22:26:50.761Z,25.00
2022-08-26T22:31:49.091Z,25.00
2022-08-26T22:36:50.372Z,25.00
2022-08-26T22:41:49.312Z,25.00
2022-08-26T22:46:49.039Z,24.90
2022-08-26T22:51:47.637Z,24.90
2022-08-26T22:56:47.288Z,24.90
2022-08-26T23:01:47.412Z,24.80
2022-08-26T23:06:48.021Z,24.90
2022-08-26T23:11:48.790Z,24.80
2022-08-26T23:16:47.639Z,24.70
2022-08-26T23:21:46.768Z,24.60
2022-08-26T23:26:47.377Z,24.60
2022-08-26T23:31:45.833Z,24.60
2022-08-26T23:36:44.198Z,24.50
2022-08-26T23:41:44.548Z,24.50
2022-08-26T23:46:44.277Z,24.50
2022-08-26T23:51:59.939Z,24.50
2022-08-26T23:56:58.231Z,24.50
